Time;durP1;ratioP1;P1;durP2;ratioP2;P2;SDS_P1;SDS_P2;PMS_P1;PMS_P2;Temp;Humidity;BMP_temperature;BMP_pressure;BME280_temperature;BME280_humidity;BME280_pressure;Samples;Min_cycle;Max_cycle;Signal;HPM_P1;HPM_P2
2021/06/10 00:02:17;;;;;;;7.90;7.13;;;23.00;71.30;;;;;;5049997;28;20464;-61
2021/06/10 00:04:43;;;;;;;7.43;6.77;;;23.00;71.50;;;;;;5044476;28;20485;-61
2021/06/10 00:07:11;;;;;;;8.20;6.80;;;23.00;71.60;;;;;;5053114;28;20850;-62
2021/06/10 00:09:38;;;;;;;7.60;6.90;;;23.00;71.80;;;;;;5052952;28;20477;-61
2021/06/10 00:12:06;;;;;;;7.70;6.90;;;22.90;71.80;;;;;;5046643;28;20533;-62
2021/06/10 00:14:32;;;;;;;6.37;5.83;;;22.90;72.00;;;;;;5046761;28;20980;-62
2021/06/10 00:16:59;;;;;;;7.60;6.90;;;22.90;72.10;;;;;;5052875;28;20475;-62
2021/06/10 00:19:26;;;;;;;7.23;6.53;;;22.90;72.30;;;;;;5042229;28;20540;-62
2021/06/10 00:21:53;;;;;;;6.10;5.60;;;22.90;72.40;;;;;;5046269;28;20468;-62
2021/06/10 00:24:19;;;;;;;6.97;6.27;;;22.90;72.60;;;;;;5050591;28;20493;-62
2021/06/10 00:26:46;;;;;;;9.27;6.13;;;22.90;72.70;;;;;;5051551;28;20459;-61
2021/06/10 00:29:12;;;;;;;6.00;5.60;;;22.90;72.80;;;;;;5053551;28;20471;-62
2021/06/10 00:31:39;;;;;;;8.73;7.03;;;22.90;73.00;;;;;;5053633;28;20555;-62
2021/06/10 00:34:05;;;;;;;7.20;6.50;;;22.90;72.50;;;;;;5051583;28;20469;-62
2021/06/10 00:36:33;;;;;;;6.80;6.03;;;22.90;72.40;;;;;;5052064;28;20471;-61
2021/06/10 00:39:00;;;;;;;8.17;7.37;;;22.90;72.60;;;;;;5052200;28;20481;-61
2021/06/10 00:41:32;;;;;;;8.83;7.93;;;22.80;72.60;;;;;;5043790;28;20475;-61
2021/06/10 00:43:58;;;;;;;7.17;6.57;;;22.80;72.50;;;;;;5052290;28;20553;-62
2021/06/10 00:46:25;;;;;;;6.70;6.00;;;22.80;72.70;;;;;;5052769;28;20516;-61
2021/06/10 00:48:51;;;;;;;7.60;6.80;;;22.80;72.90;;;;;;5051152;28;21047;-61
2021/06/10 00:51:18;;;;;;;7.37;6.67;;;22.80;73.00;;;;;;5040922;28;20459;-61
2021/06/10 00:53:45;;;;;;;7.33;6.67;;;22.80;73.00;;;;;;5051289;28;20474;-61
2021/06/10 00:56:12;;;;;;;7.27;6.63;;;22.70;73.00;;;;;;5052510;28;20455;-62
2021/06/10 00:58:39;;;;;;;7.70;6.90;;;22.70;73.10;;;;;;5052457;28;20473;-61
2021/06/10 01:01:05;;;;;;;6.07;5.57;;;22.70;73.20;;;;;;5045598;28;20997;-62
2021/06/10 01:03:35;;;;;;;7.37;6.77;;;22.70;73.40;;;;;;5045164;28;20928;-62
2021/06/10 01:06:13;;;;;;;7.33;6.70;;;22.70;73.70;;;;;;5045391;28;20964;-62
2021/06/10 01:08:45;;;;;;;6.87;6.17;;;22.70;73.80;;;;;;5047894;28;20892;-62
2021/06/10 01:11:21;;;;;;;7.73;7.03;;;22.60;73.80;;;;;;5036152;28;20930;-62
2021/06/10 01:13:55;;;;;;;8.00;6.20;;;22.60;74.10;;;;;;5047545;28;20553;-62
2021/06/10 01:16:25;;;;;;;8.47;6.50;;;22.60;74.20;;;;;;5041333;28;20928;-62
2021/06/10 01:18:52;;;;;;;6.40;5.90;;;22.50;74.30;;;;;;5044394;28;20490;-62
2021/06/10 01:21:20;;;;;;;6.43;5.93;;;22.50;74.30;;;;;;5051969;28;20451;-62
2021/06/10 01:24:03;;;;;;;8.60;6.50;;;22.50;74.50;;;;;;5051433;28;20467;-62
2021/06/10 01:26:35;;;;;;;8.50;5.80;;;22.40;74.50;;;;;;5050721;28;20550;-62
2021/06/10 01:29:06;;;;;;;6.53;6.03;;;22.40;74.60;;;;;;5052427;28;20961;-62
2021/06/10 01:31:33;;;;;;;6.83;6.23;;;22.40;74.60;;;;;;5051980;28;21124;-61
2021/06/10 01:34:04;;;;;;;8.33;6.20;;;22.40;74.90;;;;;;5052238;28;20554;-62
2021/06/10 01:36:34;;;;;;;7.63;6.30;;;22.40;75.00;;;;;;5038661;28;20466;-62
2021/06/10 01:39:05;;;;;;;6.93;6.23;;;22.40;75.10;;;;;;5050997;28;20467;-62
2021/06/10 01:41:33;;;;;;;7.50;6.57;;;22.30;75.20;;;;;;5051623;28;20505;-62
2021/06/10 01:44:01;;;;;;;7.67;6.97;;;22.30;75.40;;;;;;5051757;28;20475;-62
2021/06/10 01:46:31;;;;;;;8.33;7.40;;;22.40;75.40;;;;;;5050397;28;20585;-62
2021/06/10 01:48:59;;;;;;;9.03;7.30;;;22.30;75.60;;;;;;5050907;28;20558;-63
2021/06/10 01:51:28;;;;;;;7.17;6.57;;;22.30;75.80;;;;;;5054382;28;20473;-62
2021/06/10 01:53:57;;;;;;;7.30;6.70;;;22.30;76.00;;;;;;5054547;28;20475;-63
2021/06/10 01:56:25;;;;;;;8.27;7.37;;;22.30;76.30;;;;;;5054221;28;20828;-62
2021/06/10 01:58:52;;;;;;;7.10;6.43;;;22.30;76.60;;;;;;5054352;28;20466;-63
2021/06/10 02:01:21;;;;;;;8.63;6.70;;;22.30;77.50;;;;;;5050313;28;21160;-62
2021/06/10 02:03:50;;;;;;;7.00;6.30;;;22.30;77.60;;;;;;5053410;28;20806;-62
2021/06/10 02:06:18;;;;;;;7.87;7.10;;;22.30;78.20;;;;;;5055869;28;20467;-63
2021/06/10 02:08:47;;;;;;;10.93;7.10;;;22.30;78.20;;;;;;5056108;28;20867;-63
2021/06/10 02:11:15;;;;;;;7.60;6.90;;;22.30;78.00;;;;;;5055732;28;20462;-63
2021/06/10 02:13:43;;;;;;;6.50;5.90;;;22.30;78.00;;;;;;5055882;28;20474;-63
2021/06/10 02:16:11;;;;;;;6.73;6.23;;;22.30;78.00;;;;;;5055879;28;20479;-63
2021/06/10 02:18:40;;;;;;;7.43;5.83;;;22.30;78.20;;;;;;5059157;28;21365;-62
2021/06/10 02:21:10;;;;;;;6.63;6.10;;;22.30;78.50;;;;;;5055259;28;20868;-62
2021/06/10 02:23:38;;;;;;;7.67;6.87;;;22.20;78.60;;;;;;5055468;28;20466;-62
2021/06/10 02:26:05;;;;;;;6.73;5.30;;;22.20;78.70;;;;;;5055649;28;20477;-62
2021/06/10 02:28:32;;;;;;;7.00;6.40;;;22.20;78.70;;;;;;5055275;28;20524;-63
2021/06/10 02:30:58;;;;;;;6.77;6.20;;;22.20;78.80;;;;;;5055409;28;20546;-62
2021/06/10 02:33:25;;;;;;;6.77;6.17;;;22.20;78.90;;;;;;5055193;28;20479;-63
2021/06/10 02:35:52;;;;;;;6.80;6.20;;;22.30;79.30;;;;;;5055724;28;20467;-63
2021/06/10 02:38:20;;;;;;;8.10;6.70;;;22.30;79.50;;;;;;5042008;28;20468;-63
2021/06/10 02:40:51;;;;;;;7.03;6.37;;;22.30;79.50;;;;;;5033469;28;20566;-61
2021/06/10 02:43:18;;;;;;;6.87;6.27;;;22.20;79.60;;;;;;5033670;28;20474;-61
2021/06/10 02:45:46;;;;;;;5.97;5.57;;;22.30;79.80;;;;;;5035832;28;20528;-61
2021/06/10 02:48:13;;;;;;;8.37;7.57;;;22.30;80.00;;;;;;5035529;28;20482;-62
2021/06/10 02:50:42;;;;;;;7.40;6.90;;;22.20;79.80;;;;;;5035489;28;20495;-62
2021/06/10 02:53:14;;;;;;;7.37;6.70;;;22.20;79.40;;;;;;5033712;28;20468;-62
2021/06/10 02:55:43;;;;;;;8.30;7.50;;;22.30;80.10;;;;;;5033447;28;21040;-62
2021/06/10 02:58:12;;;;;;;7.13;6.53;;;22.30;79.00;;;;;;5033639;28;20829;-62
2021/06/10 03:00:39;;;;;;;7.07;6.47;;;22.30;78.90;;;;;;5033076;28;20471;-63
2021/06/10 03:03:10;;;;;;;7.00;6.40;;;22.30;79.10;;;;;;5033638;28;20914;-62
2021/06/10 03:05:38;;;;;;;7.70;6.90;;;22.30;79.40;;;;;;5035113;28;20483;-63
2021/06/10 03:08:05;;;;;;;7.03;5.23;;;22.30;79.70;;;;;;5035304;28;20480;-62
2021/06/10 03:10:33;;;;;;;7.00;6.30;;;22.40;79.70;;;;;;5034948;28;21305;-63
2021/06/10 03:13:02;;;;;;;5.93;5.43;;;22.30;79.70;;;;;;5035372;28;20514;-63
2021/06/10 03:15:30;;;;;;;7.33;6.17;;;22.30;79.80;;;;;;5034882;28;20817;-62
2021/06/10 03:17:58;;;;;;;6.60;6.03;;;22.30;80.20;;;;;;5035062;28;20477;-62
2021/06/10 03:20:25;;;;;;;6.10;5.60;;;22.30;80.50;;;;;;5034430;28;20495;-62
2021/06/10 03:22:53;;;;;;;7.80;6.53;;;22.30;80.40;;;;;;5035133;28;20501;-63
2021/06/10 03:25:21;;;;;;;7.13;6.47;;;22.20;80.20;;;;;;5034731;28;20490;-61
2021/06/10 03:27:48;;;;;;;6.07;5.57;;;22.20;80.20;;;;;;5034982;28;20555;-62
2021/06/10 03:30:17;;;;;;;6.83;6.07;;;22.10;79.80;;;;;;5034810;28;20463;-62
2021/06/10 03:32:44;;;;;;;8.13;7.50;;;22.10;79.50;;;;;;5034465;28;20530;-61
2021/06/10 03:35:11;;;;;;;6.40;5.80;;;22.00;79.60;;;;;;5034839;28;20464;-61
2021/06/10 03:37:39;;;;;;;6.73;6.10;;;22.00;79.80;;;;;;5034403;28;20472;-62
2021/06/10 03:40:08;;;;;;;7.40;6.30;;;22.00;79.80;;;;;;5034755;28;20545;-62
2021/06/10 03:42:35;;;;;;;6.50;5.60;;;21.90;79.60;;;;;;5034201;28;20468;-64
2021/06/10 03:45:02;;;;;;;7.00;6.30;;;21.80;78.90;;;;;;5034608;28;20472;-62
2021/06/10 03:47:31;;;;;;;6.37;5.87;;;21.70;78.90;;;;;;5033933;28;20479;-62
2021/06/10 03:49:57;;;;;;;7.43;6.80;;;21.60;79.00;;;;;;5034490;28;20464;-62
2021/06/10 03:52:24;;;;;;;5.83;5.37;;;21.50;79.30;;;;;;5034067;28;20479;-63
2021/06/10 03:54:51;;;;;;;5.50;5.10;;;21.40;79.70;;;;;;5034475;28;20475;-61
2021/06/10 03:57:17;;;;;;;7.60;5.70;;;21.40;79.80;;;;;;5034419;28;20472;-62
2021/06/10 03:59:44;;;;;;;7.40;6.80;;;21.30;80.30;;;;;;5033861;28;20498;-62
2021/06/10 04:02:10;;;;;;;6.77;6.17;;;21.30;80.60;;;;;;5033932;28;20469;-61
2021/06/10 04:04:38;;;;;;;6.97;6.37;;;21.30;80.80;;;;;;5033913;28;20546;-61
2021/06/10 04:07:05;;;;;;;10.87;6.80;;;21.20;80.70;;;;;;5034034;28;20472;-61
2021/06/10 04:09:31;;;;;;;6.43;5.93;;;21.20;81.00;;;;;;5033821;28;20983;-62
2021/06/10 04:11:57;;;;;;;6.20;5.60;;;21.20;81.00;;;;;;5033895;28;20802;-61
2021/06/10 04:14:24;;;;;;;6.50;5.90;;;21.20;81.20;;;;;;5033620;28;20464;-61
2021/06/10 04:16:50;;;;;;;5.77;5.23;;;21.20;81.50;;;;;;5033534;28;20476;-62
2021/06/10 04:19:17;;;;;;;8.23;6.10;;;21.20;81.50;;;;;;5033903;28;20463;-63
2021/06/10 04:21:44;;;;;;;7.80;7.20;;;21.10;81.60;;;;;;5033507;28;20513;-63
2021/06/10 04:24:11;;;;;;;7.80;6.03;;;21.10;81.70;;;;;;5033960;28;20464;-61
2021/06/10 04:26:37;;;;;;;6.17;5.70;;;21.10;81.70;;;;;;5033423;28;20797;-62
2021/06/10 04:29:04;;;;;;;6.50;6.10;;;21.10;81.90;;;;;;5033771;28;20468;-61
2021/06/10 04:31:30;;;;;;;5.83;5.43;;;21.10;82.00;;;;;;5033326;28;20470;-62
2021/06/10 04:33:56;;;;;;;6.87;6.17;;;21.10;82.00;;;;;;5033561;28;20478;-63
2021/06/10 04:36:23;;;;;;;6.50;6.00;;;21.10;81.90;;;;;;5033688;28;20874;-61
2021/06/10 04:38:51;;;;;;;5.50;5.10;;;21.10;82.00;;;;;;5033389;28;21335;-61
2021/06/10 04:41:18;;;;;;;7.70;6.50;;;21.10;82.00;;;;;;5033549;28;20473;-62
2021/06/10 04:43:44;;;;;;;7.00;6.40;;;21.20;82.00;;;;;;5033128;28;20474;-62
2021/06/10 04:46:11;;;;;;;7.50;6.80;;;21.20;81.50;;;;;;5033440;28;20583;-62
2021/06/10 04:48:37;;;;;;;6.70;6.10;;;21.20;81.50;;;;;;5033006;28;20474;-61
2021/06/10 04:51:04;;;;;;;6.40;5.90;;;21.20;81.50;;;;;;5033462;28;20547;-62
2021/06/10 04:53:31;;;;;;;5.47;5.17;;;21.30;81.60;;;;;;5033061;28;20482;-62
2021/06/10 04:55:59;;;;;;;6.37;5.83;;;21.30;81.70;;;;;;5033263;28;20466;-60
2021/06/10 04:58:26;;;;;;;7.00;6.40;;;21.30;81.70;;;;;;5033198;28;20556;-62
2021/06/10 05:00:52;;;;;;;6.90;6.30;;;21.40;81.70;;;;;;5032848;28;20472;-62
2021/06/10 05:03:22;;;;;;;6.27;5.77;;;21.40;81.60;;;;;;5033040;28;21006;-62
2021/06/10 05:05:48;;;;;;;8.20;7.50;;;21.40;81.30;;;;;;5032931;28;20930;-62
2021/06/10 05:08:15;;;;;;;6.77;6.20;;;21.50;81.30;;;;;;5033138;28;20476;-63
2021/06/10 05:10:42;;;;;;;6.13;5.70;;;21.50;82.10;;;;;;5032613;28;20521;-61
2021/06/10 05:13:10;;;;;;;5.93;5.43;;;21.60;81.30;;;;;;5033133;28;20482;-61
2021/06/10 05:15:36;;;;;;;8.13;7.43;;;21.70;81.20;;;;;;5032598;28;20468;-61
2021/06/10 05:18:03;;;;;;;7.17;6.13;;;21.80;80.90;;;;;;5032972;28;20555;-61
2021/06/10 05:20:29;;;;;;;7.77;6.80;;;21.80;80.50;;;;;;5032691;28;20492;-62
2021/06/10 05:22:55;;;;;;;6.63;6.13;;;21.90;80.30;;;;;;5032858;28;20468;-62
2021/06/10 05:25:22;;;;;;;6.40;5.90;;;22.00;79.60;;;;;;5032316;28;20867;-62
2021/06/10 05:27:48;;;;;;;5.37;4.90;;;22.10;78.70;;;;;;5032523;28;20529;-62
2021/06/10 05:30:18;;;;;;;6.70;5.50;;;22.20;79.40;;;;;;5032929;28;20586;-62
2021/06/10 05:32:44;;;;;;;6.20;5.53;;;22.30;77.80;;;;;;5032485;28;20468;-62
2021/06/10 05:35:12;;;;;;;5.93;5.33;;;22.40;77.60;;;;;;5032764;28;20547;-62
2021/06/10 05:37:38;;;;;;;5.37;4.97;;;22.60;77.50;;;;;;5032269;28;20787;-62
2021/06/10 05:40:06;;;;;;;6.10;5.50;;;22.70;77.30;;;;;;5032997;28;20533;-62
2021/06/10 05:42:33;;;;;;;6.87;6.27;;;22.80;77.10;;;;;;5032353;28;20476;-63
2021/06/10 05:44:59;;;;;;;6.07;5.63;;;22.80;76.90;;;;;;5032536;28;20464;-63
2021/06/10 05:47:27;;;;;;;6.33;5.93;;;22.90;76.90;;;;;;5032650;28;20480;-62
2021/06/10 05:49:53;;;;;;;4.80;4.50;;;23.00;76.50;;;;;;5032244;28;20464;-62
2021/06/10 05:52:21;;;;;;;5.93;4.70;;;23.00;75.90;;;;;;5032824;28;20566;-62
2021/06/10 05:54:47;;;;;;;5.30;4.80;;;23.10;75.20;;;;;;5032268;28;20865;-62
2021/06/10 05:57:14;;;;;;;4.67;4.17;;;23.20;74.30;;;;;;5032487;28;20478;-62
2021/06/10 05:59:40;;;;;;;5.43;5.00;;;23.30;73.40;;;;;;5032067;28;20476;-62
2021/06/10 06:02:07;;;;;;;6.20;5.17;;;23.40;73.30;;;;;;5032318;28;20790;-63
2021/06/10 06:04:35;;;;;;;7.20;5.93;;;23.50;72.60;;;;;;5031891;28;20468;-61
2021/06/10 06:07:01;;;;;;;6.83;5.80;;;23.50;72.00;;;;;;5032545;28;20511;-62
2021/06/10 06:09:27;;;;;;;4.00;3.80;;;23.60;71.80;;;;;;5032449;28;20479;-63
2021/06/10 06:11:56;;;;;;;7.17;5.40;;;23.70;71.20;;;;;;5032020;28;20843;-62
2021/06/10 06:14:26;;;;;;;7.90;4.97;;;23.80;71.00;;;;;;5032621;28;20550;-62
2021/06/10 06:16:52;;;;;;;5.30;4.90;;;24.00;71.00;;;;;;5031883;28;20467;-62
2021/06/10 06:19:19;;;;;;;4.97;4.57;;;24.20;70.80;;;;;;5032506;28;20521;-63
2021/06/10 06:21:47;;;;;;;6.20;5.63;;;24.30;70.60;;;;;;5032010;28;20475;-63
2021/06/10 06:24:14;;;;;;;6.40;4.87;;;24.30;70.40;;;;;;5032352;28;20547;-62
2021/06/10 06:26:41;;;;;;;5.13;4.20;;;24.40;70.50;;;;;;5031930;28;20468;-62
2021/06/10 06:29:08;;;;;;;5.97;4.17;;;24.40;69.80;;;;;;5032424;28;20500;-61
2021/06/10 06:31:35;;;;;;;5.33;4.47;;;24.50;69.40;;;;;;5031811;28;20464;-62
2021/06/10 06:34:01;;;;;;;4.90;4.43;;;24.60;69.10;;;;;;5032067;28;20460;-63
2021/06/10 06:36:28;;;;;;;4.67;4.37;;;24.60;68.60;;;;;;5034760;28;20474;-63
2021/06/10 06:38:56;;;;;;;4.83;4.43;;;24.70;68.60;;;;;;5035379;28;21906;-62
2021/06/10 06:41:23;;;;;;;4.97;4.57;;;24.80;68.20;;;;;;5035727;28;20554;-63
2021/06/10 06:43:49;;;;;;;4.60;4.23;;;24.90;67.90;;;;;;5035557;28;20538;-63
2021/06/10 06:46:16;;;;;;;5.63;4.93;;;25.10;67.90;;;;;;5035417;28;20957;-63
2021/06/10 06:48:42;;;;;;;5.27;4.87;;;25.20;68.00;;;;;;5035119;28;21012;-61
2021/06/10 06:51:09;;;;;;;5.83;5.40;;;25.40;67.80;;;;;;5034766;28;20555;-61
2021/06/10 06:53:36;;;;;;;5.80;5.23;;;25.60;67.40;;;;;;5035168;28;20464;-61
2021/06/10 06:56:04;;;;;;;6.03;5.50;;;25.70;66.70;;;;;;5035383;28;20461;-62
2021/06/10 06:58:31;;;;;;;5.90;5.40;;;25.90;66.70;;;;;;5035273;28;20779;-62
2021/06/10 07:00:58;;;;;;;7.17;5.53;;;26.00;66.70;;;;;;5034860;28;20462;-62
2021/06/10 07:03:24;;;;;;;6.90;6.27;;;26.20;66.90;;;;;;5035580;28;20468;-62
2021/06/10 07:05:52;;;;;;;6.97;6.20;;;26.30;66.50;;;;;;5034923;28;20468;-62
2021/06/10 07:08:19;;;;;;;8.30;5.60;;;26.50;66.40;;;;;;5035318;28;20476;-62
2021/06/10 07:10:46;;;;;;;6.40;5.40;;;26.70;65.80;;;;;;5034994;28;20468;-63
2021/06/10 07:13:13;;;;;;;8.77;5.20;;;26.90;66.00;;;;;;5035373;28;20465;-62
2021/06/10 07:15:41;;;;;;;4.00;3.70;;;27.00;64.20;;;;;;5034937;28;20480;-62
2021/06/10 07:18:07;;;;;;;6.87;4.50;;;27.20;63.70;;;;;;5035144;28;20491;-62
2021/06/10 07:20:33;;;;;;;7.07;6.50;;;27.30;62.80;;;;;;5035096;28;20491;-62
2021/06/10 07:23:00;;;;;;;4.87;4.47;;;27.40;63.10;;;;;;5034569;28;20472;-63
2021/06/10 07:25:27;;;;;;;4.90;3.70;;;27.50;62.70;;;;;;5034999;28;20549;-63
2021/06/10 07:27:54;;;;;;;4.73;4.33;;;27.60;62.40;;;;;;5034527;28;20484;-62
2021/06/10 07:30:22;;;;;;;4.67;3.37;;;27.80;62.20;;;;;;5034970;28;20468;-62
2021/06/10 07:32:49;;;;;;;4.30;4.00;;;27.90;59.70;;;;;;5034388;28;20525;-63
2021/06/10 07:35:20;;;;;;;3.83;3.40;;;28.00;58.60;;;;;;5034905;28;20468;-63
2021/06/10 07:37:47;;;;;;;4.67;3.90;;;28.10;57.90;;;;;;5034373;28;20472;-63
2021/06/10 07:40:14;;;;;;;4.40;4.00;;;28.30;57.70;;;;;;5034887;28;20467;-63
2021/06/10 07:42:41;;;;;;;5.13;4.70;;;28.40;57.40;;;;;;5034491;28;20476;-63
2021/06/10 07:45:08;;;;;;;3.97;3.67;;;28.50;56.90;;;;;;5034784;28;20478;-63
2021/06/10 07:47:36;;;;;;;4.60;4.20;;;28.60;56.90;;;;;;5033599;28;20472;-63
2021/06/10 07:50:03;;;;;;;4.30;3.90;;;28.70;56.50;;;;;;5034134;28;20536;-62
2021/06/10 07:52:30;;;;;;;4.53;4.13;;;28.70;56.50;;;;;;5034432;28;20547;-63
2021/06/10 07:54:57;;;;;;;4.73;4.37;;;28.80;56.80;;;;;;5034119;28;20815;-61
2021/06/10 07:57:23;;;;;;;4.60;4.23;;;28.80;56.90;;;;;;5034480;28;20472;-62
2021/06/10 07:59:49;;;;;;;4.43;4.03;;;28.90;56.60;;;;;;5033939;28;20479;-63
2021/06/10 08:02:16;;;;;;;5.17;4.67;;;28.90;56.50;;;;;;5034096;28;20479;-62
2021/06/10 08:04:44;;;;;;;4.80;4.50;;;29.00;56.30;;;;;;5033976;28;20472;-63
2021/06/10 08:07:11;;;;;;;5.50;5.00;;;29.00;56.50;;;;;;5034148;28;21037;-63
2021/06/10 08:09:38;;;;;;;5.53;5.03;;;29.20;55.50;;;;;;5034399;28;20543;-62
2021/06/10 08:12:05;;;;;;;4.53;4.13;;;29.20;55.70;;;;;;5033757;28;20463;-62
2021/06/10 08:14:31;;;;;;;5.53;5.07;;;29.20;55.30;;;;;;5034192;28;20468;-62
2021/06/10 08:16:58;;;;;;;5.20;4.70;;;29.30;54.80;;;;;;5033383;28;20472;-62
2021/06/10 08:19:24;;;;;;;5.57;5.07;;;29.30;54.40;;;;;;5034041;28;20468;-62
2021/06/10 08:21:52;;;;;;;6.67;6.07;;;29.30;54.50;;;;;;5033512;28;20479;-61
2021/06/10 08:24:19;;;;;;;7.20;5.60;;;29.40;54.60;;;;;;5034004;28;20468;-62
2021/06/10 08:26:47;;;;;;;5.13;4.67;;;29.40;54.50;;;;;;5033524;28;20474;-61
2021/06/10 08:29:13;;;;;;;5.37;4.93;;;29.50;53.90;;;;;;5033681;28;20610;-61
2021/06/10 08:31:40;;;;;;;5.70;5.20;;;29.50;53.70;;;;;;5033610;28;20460;-62
2021/06/10 08:34:07;;;;;;;4.47;4.17;;;29.50;53.90;;;;;;5041183;28;20941;-63
2021/06/10 08:36:34;;;;;;;5.07;4.77;;;29.50;54.00;;;;;;5052974;28;20534;-62
2021/06/10 08:39:01;;;;;;;5.50;5.00;;;29.50;53.90;;;;;;5051960;28;21134;-62
2021/06/10 08:41:28;;;;;;;6.33;5.70;;;29.50;53.90;;;;;;5052904;28;21022;-62
2021/06/10 08:43:57;;;;;;;6.27;5.30;;;29.40;54.30;;;;;;5053127;28;20494;-62
2021/06/10 08:46:24;;;;;;;5.87;5.50;;;29.40;53.80;;;;;;5053512;28;20957;-62
2021/06/10 08:48:51;;;;;;;5.63;5.23;;;29.40;54.00;;;;;;5052949;28;20478;-63
2021/06/10 08:51:19;;;;;;;6.90;5.60;;;29.40;54.00;;;;;;5053222;28;20463;-62
2021/06/10 08:53:45;;;;;;;5.60;5.20;;;29.40;54.10;;;;;;5052772;28;20459;-63
2021/06/10 08:56:13;;;;;;;5.50;5.10;;;29.30;53.90;;;;;;5053356;28;20949;-62
2021/06/10 08:58:41;;;;;;;5.57;5.23;;;29.30;53.80;;;;;;5052968;28;20470;-62
2021/06/10 09:01:12;;;;;;;8.17;5.67;;;29.30;53.60;;;;;;5052661;28;20467;-62
2021/06/10 09:03:38;;;;;;;6.87;6.27;;;29.30;53.80;;;;;;5053181;28;20478;-63
2021/06/10 09:06:07;;;;;;;5.50;5.00;;;29.20;53.90;;;;;;5052588;28;20471;-62
2021/06/10 09:08:34;;;;;;;5.27;4.70;;;29.20;53.80;;;;;;5052896;28;20494;-63
2021/06/10 09:11:11;;;;;;;6.27;5.67;;;29.30;54.00;;;;;;5052747;28;20976;-63
2021/06/10 09:13:42;;;;;;;6.07;5.23;;;29.30;53.90;;;;;;5052774;28;20809;-63
2021/06/10 09:16:23;;;;;;;7.07;6.37;;;29.20;54.40;;;;;;5052458;28;20473;-62
2021/06/10 09:18:59;;;;;;;7.00;5.87;;;29.30;53.60;;;;;;5047491;28;20482;-63
2021/06/10 09:21:34;;;;;;;6.10;5.50;;;29.20;53.70;;;;;;5032987;28;20478;-63
2021/06/10 09:24:22;;;;;;;6.27;5.67;;;29.10;53.50;;;;;;5032525;28;20478;-61
2021/06/10 09:26:57;;;;;;;7.43;5.07;;;29.00;53.80;;;;;;5032485;28;20953;-62
2021/06/10 09:29:36;;;;;;;6.50;5.80;;;29.10;53.70;;;;;;5032931;28;20810;-62
2021/06/10 09:32:02;;;;;;;8.27;5.90;;;29.00;53.70;;;;;;5032261;28;20467;-62
2021/06/10 09:34:42;;;;;;;5.87;5.47;;;29.00;53.40;;;;;;5042968;28;20497;-62
2021/06/10 09:37:09;;;;;;;5.57;5.07;;;28.90;53.60;;;;;;5051507;28;20475;-62
2021/06/10 09:39:47;;;;;;;4.67;4.27;;;28.90;53.70;;;;;;5042444;28;20524;-61
2021/06/10 09:42:14;;;;;;;6.03;5.00;;;28.90;53.60;;;;;;5050028;28;21223;-62
2021/06/10 09:44:43;;;;;;;5.30;4.90;;;29.00;53.40;;;;;;5051667;28;20478;-62
2021/06/10 09:47:10;;;;;;;6.87;6.37;;;29.00;53.10;;;;;;5051267;28;21003;-62
2021/06/10 09:49:37;;;;;;;5.40;4.90;;;29.00;52.80;;;;;;5051708;28;20467;-62
2021/06/10 09:52:04;;;;;;;5.90;5.40;;;29.00;52.90;;;;;;5040222;28;20558;-61
2021/06/10 09:54:44;;;;;;;6.10;5.50;;;29.00;53.20;;;;;;5052460;28;20467;-61
2021/06/10 09:57:13;;;;;;;4.97;4.67;;;29.00;52.40;;;;;;5039459;28;20477;-62
2021/06/10 09:59:52;;;;;;;4.90;4.60;;;29.00;52.70;;;;;;5052170;28;20467;-62
2021/06/10 10:02:21;;;;;;;4.17;3.97;;;29.00;52.00;;;;;;5051988;28;20460;-62
2021/06/10 10:05:04;;;;;;;6.17;4.93;;;29.00;51.80;;;;;;5052166;28;20477;-62
2021/06/10 10:07:32;;;;;;;4.30;3.90;;;28.90;51.40;;;;;;5049462;28;20476;-62
2021/06/10 10:10:00;;;;;;;4.40;4.00;;;28.80;51.60;;;;;;5051624;28;20467;-62
2021/06/10 10:12:28;;;;;;;4.03;3.73;;;28.80;51.90;;;;;;5056037;28;20988;-62
2021/06/10 10:14:57;;;;;;;5.27;4.80;;;28.70;52.20;;;;;;5055799;28;20546;-62
2021/06/10 10:17:26;;;;;;;6.33;4.90;;;28.70;52.30;;;;;;5055826;28;20571;-61
2021/06/10 10:19:52;;;;;;;5.67;5.27;;;28.60;52.70;;;;;;5055799;28;20892;-62
2021/06/10 10:22:19;;;;;;;6.60;6.00;;;28.60;52.50;;;;;;5055894;28;20848;-62
2021/06/10 10:24:46;;;;;;;5.87;5.37;;;28.60;53.00;;;;;;5055770;28;20811;-61
2021/06/10 10:27:13;;;;;;;7.33;6.73;;;28.60;53.20;;;;;;5055717;28;20471;-62
2021/06/10 10:29:41;;;;;;;6.00;5.40;;;28.50;52.40;;;;;;5055582;28;20825;-62
2021/06/10 10:32:14;;;;;;;5.27;4.77;;;28.40;52.40;;;;;;5055532;28;20483;-63
2021/06/10 10:34:41;;;;;;;5.40;5.10;;;28.40;52.20;;;;;;5046162;28;20617;-62
2021/06/10 10:37:19;;;;;;;5.53;5.00;;;28.40;52.10;;;;;;5055881;28;20479;-62
2021/06/10 10:39:46;;;;;;;5.30;4.80;;;28.40;52.10;;;;;;5055180;28;20477;-61
2021/06/10 10:42:32;;;;;;;4.80;4.40;;;28.40;51.80;;;;;;5055337;28;20473;-61
2021/06/10 10:45:20;;;;;;;4.50;4.20;;;28.40;51.80;;;;;;5044431;28;20459;-61
2021/06/10 10:47:57;;;;;;;5.10;4.60;;;28.40;51.90;;;;;;5054990;28;20873;-61
2021/06/10 10:50:38;;;;;;;5.47;4.97;;;28.30;51.60;;;;;;5055417;28;20517;-62
2021/06/10 10:53:08;;;;;;;5.67;5.27;;;28.30;51.90;;;;;;5055215;28;20473;-62
2021/06/10 10:55:34;;;;;;;5.83;5.43;;;28.30;52.10;;;;;;5055535;28;20508;-63
2021/06/10 10:58:05;;;;;;;5.10;4.70;;;28.30;52.10;;;;;;5054696;28;20471;-63
2021/06/10 11:00:46;;;;;;;5.17;4.73;;;28.40;51.90;;;;;;5055265;28;20491;-63
2021/06/10 11:03:28;;;;;;;4.97;4.63;;;28.40;52.10;;;;;;5054864;28;21210;-62
2021/06/10 11:05:56;;;;;;;6.10;5.53;;;28.40;52.30;;;;;;5043260;28;20549;-62
2021/06/10 11:08:24;;;;;;;5.40;5.00;;;28.50;52.10;;;;;;5055180;28;20918;-62
2021/06/10 11:11:02;;;;;;;4.50;4.20;;;28.40;52.10;;;;;;5054592;28;20803;-61
2021/06/10 11:13:45;;;;;;;5.43;5.03;;;28.40;52.50;;;;;;5054970;28;20517;-62
2021/06/10 11:16:11;;;;;;;4.23;3.93;;;28.40;52.20;;;;;;5051240;28;20468;-62
2021/06/10 11:18:47;;;;;;;6.50;4.60;;;28.40;52.00;;;;;;5054177;28;20482;-62
2021/06/10 11:21:30;;;;;;;5.03;4.40;;;28.40;52.20;;;;;;5053599;28;20461;-62
2021/06/10 11:24:12;;;;;;;4.70;4.30;;;28.40;52.10;;;;;;5053851;28;20475;-62
2021/06/10 11:26:51;;;;;;;4.20;4.00;;;28.40;52.30;;;;;;5054766;28;20478;-62
2021/06/10 11:29:18;;;;;;;4.80;4.50;;;28.40;52.10;;;;;;5053974;28;20512;-62
2021/06/10 11:31:44;;;;;;;4.03;3.73;;;28.40;52.20;;;;;;5054679;28;20485;-62
2021/06/10 11:34:31;;;;;;;4.40;4.00;;;28.50;52.20;;;;;;5048882;28;20464;-61
2021/06/10 11:36:58;;;;;;;4.20;3.90;;;28.50;51.60;;;;;;5053614;28;20604;-61
2021/06/10 11:39:30;;;;;;;4.10;3.80;;;28.50;51.90;;;;;;5054620;28;20544;-62
2021/06/10 11:42:06;;;;;;;4.53;4.13;;;28.60;51.60;;;;;;5049986;28;20480;-63
2021/06/10 11:44:43;;;;;;;4.60;4.20;;;28.60;51.90;;;;;;5054638;28;20842;-62
2021/06/10 11:47:20;;;;;;;7.40;5.50;;;28.60;52.00;;;;;;5053759;28;20478;-62
2021/06/10 11:49:48;;;;;;;5.03;4.67;;;28.60;52.40;;;;;;5054343;28;20475;-62
2021/06/10 11:52:14;;;;;;;4.77;4.30;;;28.50;52.50;;;;;;5053695;28;20477;-62
2021/06/10 11:55:02;;;;;;;4.57;4.17;;;28.50;51.60;;;;;;5054340;28;20467;-61
2021/06/10 11:57:29;;;;;;;4.13;3.83;;;28.50;51.40;;;;;;5034015;28;20541;-62
2021/06/10 11:59:56;;;;;;;5.03;4.57;;;28.40;51.40;;;;;;5050272;28;20497;-62
2021/06/10 12:02:24;;;;;;;4.87;4.57;;;28.40;51.60;;;;;;5053650;28;20478;-61
2021/06/10 12:05:11;;;;;;;4.67;4.27;;;28.40;51.50;;;;;;5054120;28;20471;-61
2021/06/10 12:07:37;;;;;;;5.60;5.00;;;28.40;51.50;;;;;;5053219;28;20467;-62
2021/06/10 12:10:09;;;;;;;4.80;4.40;;;28.40;51.60;;;;;;5055647;28;20462;-62
2021/06/10 12:12:39;;;;;;;3.80;3.50;;;28.50;51.80;;;;;;5051525;28;20447;-62
2021/06/10 12:15:08;;;;;;;4.33;3.80;;;28.50;51.80;;;;;;5040898;28;20463;-62
2021/06/10 12:17:51;;;;;;;3.97;3.67;;;28.50;50.80;;;;;;5052918;28;20983;-62
2021/06/10 12:20:21;;;;;;;5.97;5.40;;;28.50;50.60;;;;;;5053289;28;21015;-62
2021/06/10 12:22:48;;;;;;;7.67;4.80;;;28.50;49.70;;;;;;5053622;28;20464;-63
2021/06/10 12:25:17;;;;;;;5.07;4.67;;;28.50;49.20;;;;;;5053387;28;20497;-63
2021/06/10 12:27:43;;;;;;;4.87;4.57;;;28.50;48.90;;;;;;5053535;28;20482;-62
2021/06/10 12:30:26;;;;;;;3.70;3.40;;;28.60;49.10;;;;;;5053575;28;20473;-62
2021/06/10 12:32:53;;;;;;;5.03;4.53;;;28.60;48.70;;;;;;5038765;28;20459;-62
2021/06/10 12:35:22;;;;;;;3.90;3.60;;;28.60;48.70;;;;;;5047675;28;20466;-62
2021/06/10 12:37:52;;;;;;;4.50;4.20;;;28.70;48.60;;;;;;5053416;28;20503;-62
2021/06/10 12:40:19;;;;;;;4.43;4.00;;;28.60;49.20;;;;;;5053001;28;20471;-63
2021/06/10 12:43:12;;;;;;;5.80;4.20;;;28.70;49.50;;;;;;5049157;28;20471;-63
2021/06/10 12:45:40;;;;;;;3.87;3.50;;;28.70;49.10;;;;;;5053076;28;20985;-62
2021/06/10 12:48:24;;;;;;;4.83;4.43;;;28.70;48.60;;;;;;5052915;28;20482;-62
2021/06/10 12:51:12;;;;;;;3.70;3.40;;;28.80;48.30;;;;;;5041047;28;20482;-62
2021/06/10 12:53:52;;;;;;;4.33;4.00;;;28.80;47.70;;;;;;5052477;28;20482;-62
2021/06/10 12:56:33;;;;;;;4.10;3.40;;;28.80;47.30;;;;;;5053021;28;20481;-62
2021/06/10 12:59:00;;;;;;;5.47;3.40;;;28.80;47.50;;;;;;5041071;28;20550;-62